Time;durP1;ratioP1;P1;durP2;ratioP2;P2;SDS_P1;SDS_P2;PMS_P1;PMS_P2;Temp;Humidity;BMP_temperature;BMP_pressure;BME280_temperature;BME280_humidity;BME280_pressure;Samples;Min_cycle;Max_cycle;Signal;HPM_P1;HPM_P2
2024/03/19 00:03:54;;;;;;;32.87;16.30;;;;;;;3.00;100.00;101365.36;5019914;56;1140783;-77
2024/03/19 00:08:59;;;;;;;34.10;17.03;;;;;;;2.94;100.00;101359.47;5016255;57;1140738;-78
2024/03/19 00:14:05;;;;;;;37.43;17.20;;;;;;;2.93;100.00;101359.06;5094312;56;1140680;-78
2024/03/19 00:19:11;;;;;;;48.40;18.53;;;;;;;2.92;100.00;101370.42;5095086;56;1140450;-78
2024/03/19 00:24:16;;;;;;;44.93;19.13;;;;;;;2.95;100.00;101369.88;5094424;56;1140670;-79
2024/03/19 00:29:22;;;;;;;57.70;20.33;;;;;;;2.98;100.00;101366.31;5114720;57;1140679;-77
2024/03/19 00:34:27;;;;;;;56.23;20.00;;;;;;;2.97;100.00;101368.07;5055160;56;1140994;-77
2024/03/19 00:39:33;;;;;;;42.48;16.20;;;;;;;2.87;100.00;101363.20;5040861;57;1140622;-76
2024/03/19 00:44:39;;;;;;;37.70;16.40;;;;;;;2.76;100.00;101361.77;5060590;57;1140510;-76
2024/03/19 00:49:45;;;;;;;41.73;15.47;;;;;;;2.67;100.00;101354.23;5040795;57;1140659;-78
2024/03/19 00:54:50;;;;;;;27.63;13.03;;;;;;;2.66;100.00;101355.59;5040674;57;1140942;-78
2024/03/19 00:59:56;;;;;;;25.50;12.80;;;;;;;2.65;100.00;101347.34;5013133;57;1140615;-77
2024/03/19 01:05:01;;;;;;;24.02;9.93;;;;;;;2.58;100.00;101351.93;5092625;56;1140570;-77
2024/03/19 01:10:08;;;;;;;20.50;11.07;;;;;;;2.53;100.00;101362.10;5094899;56;1138491;-79
2024/03/19 01:15:14;;;;;;;29.13;13.07;;;;;;;2.42;100.00;101368.97;5094524;56;1140982;-77
2024/03/19 01:20:19;;;;;;;19.03;9.83;;;;;;;2.38;100.00;101372.11;5114657;56;1140445;-78
2024/03/19 01:25:26;;;;;;;19.75;8.75;;;;;;;2.32;100.00;101369.67;5111290;56;1138846;-79
2024/03/19 01:30:32;;;;;;;15.45;9.25;;;;;;;2.37;100.00;101374.32;5022710;56;1138612;-79
2024/03/19 01:35:38;;;;;;;19.75;9.93;;;;;;;2.33;100.00;101371.84;5078023;56;1138624;-78
2024/03/19 01:40:47;;;;;;;22.45;10.15;;;;;;;2.12;100.00;101370.73;5014781;56;1138595;-76
2024/03/19 01:46:27;;;;;;;23.37;10.07;;;;;;;2.05;100.00;101371.34;5021461;57;1141081;-77
2024/03/19 01:51:32;;;;;;;33.25;11.83;;;;;;;2.02;100.00;101375.80;5026941;57;1140888;-76
2024/03/19 01:56:38;;;;;;;24.60;11.90;;;;;;;1.99;100.00;101377.18;4988242;57;1147063;-78
2024/03/19 02:01:44;;;;;;;31.43;12.73;;;;;;;1.95;100.00;101384.71;4944564;57;1140686;-75
2024/03/19 02:06:51;;;;;;;32.43;14.53;;;;;;;1.88;100.00;101380.10;4962861;57;1140588;-78
2024/03/19 02:11:57;;;;;;;41.63;16.93;;;;;;;1.75;100.00;101378.73;5011282;57;1140765;-77
2024/03/19 02:17:02;;;;;;;35.13;14.40;;;;;;;1.73;100.00;101385.74;4991460;57;1140956;-76
2024/03/19 02:22:09;;;;;;;32.87;13.27;;;;;;;1.67;100.00;101385.48;4992071;57;1140502;-74
2024/03/19 02:27:15;;;;;;;21.33;10.67;;;;;;;1.57;100.00;101385.30;4951252;57;1141018;-75
2024/03/19 02:32:20;;;;;;;25.80;11.50;;;;;;;1.51;100.00;101386.78;4959311;57;1140948;-74
2024/03/19 02:37:27;;;;;;;24.34;11.24;;;;;;;1.46;100.00;101393.86;4958106;57;1140968;-76
2024/03/19 02:42:34;;;;;;;25.48;11.75;;;;;;;1.41;100.00;101393.97;4925882;57;1140674;-75
2024/03/19 02:47:40;;;;;;;22.67;10.45;;;;;;;1.45;100.00;101399.97;4959913;57;1140848;-76
2024/03/19 02:52:45;;;;;;;19.63;10.73;;;;;;;1.40;100.00;101401.83;4940284;57;1140879;-75
2024/03/19 02:57:51;;;;;;;23.67;11.17;;;;;;;1.37;100.00;101400.18;4940182;57;1140564;-75
2024/03/19 03:02:56;;;;;;;23.00;10.07;;;;;;;1.27;100.00;101393.47;4959114;58;1141328;-73
2024/03/19 03:08:02;;;;;;;16.93;9.23;;;;;;;1.20;100.00;101394.53;4979207;57;1140939;-76
2024/03/19 03:13:08;;;;;;;25.30;9.63;;;;;;;1.21;100.00;101413.19;4951824;57;1138720;-73
2024/03/19 03:18:14;;;;;;;21.80;9.70;;;;;;;1.33;100.00;101412.02;4865730;57;1138719;-76
2024/03/19 03:23:19;;;;;;;16.77;10.10;;;;;;;1.43;100.00;101411.32;5033837;57;1138679;-73
2024/03/19 03:28:25;;;;;;;20.90;8.90;;;;;;;1.45;100.00;101422.12;5099106;55;1140847;-76
2024/03/19 03:33:31;;;;;;;17.77;9.13;;;;;;;1.53;100.00;101428.45;5100171;56;1138514;-74
2024/03/19 03:38:37;;;;;;;22.27;9.73;;;;;;;1.57;100.00;101419.19;5119605;56;1139060;-76
2024/03/19 03:43:42;;;;;;;22.30;10.57;;;;;;;1.52;100.00;101425.44;5099400;56;1144152;-76
2024/03/19 03:48:48;;;;;;;25.63;11.27;;;;;;;1.28;100.00;101432.97;5049286;56;1140577;-75
2024/03/19 03:53:54;;;;;;;20.53;11.13;;;;;;;0.99;100.00;101438.03;5031743;57;1140885;-76
2024/03/19 03:59:00;;;;;;;24.20;11.70;;;;;;;0.75;100.00;101438.60;5099557;56;1140574;-76
2024/03/19 04:04:06;;;;;;;23.33;11.57;;;;;;;0.49;100.00;101441.75;5046248;55;1140539;-76
2024/03/19 04:09:11;;;;;;;26.40;12.73;;;;;;;0.41;100.00;101451.48;5028559;57;1140434;-74
2024/03/19 04:14:17;;;;;;;26.63;11.33;;;;;;;0.41;100.00;101451.04;5011110;57;1140620;-75
2024/03/19 04:19:22;;;;;;;20.30;12.30;;;;;;;0.42;100.00;101459.26;5007182;57;1140752;-77
2024/03/19 04:24:29;;;;;;;24.04;11.36;;;;;;;0.45;100.00;101455.30;5050685;57;1140916;-77
2024/03/19 04:29:35;;;;;;;25.50;11.07;;;;;;;0.61;100.00;101459.26;5001437;57;1149007;-73
2024/03/19 04:34:41;;;;;;;22.70;12.20;;;;;;;0.70;100.00;101466.89;5011710;57;1140546;-73
2024/03/19 04:39:47;;;;;;;33.53;18.90;;;;;;;0.74;100.00;101460.31;5119142;56;1140523;-78
2024/03/19 04:44:52;;;;;;;34.97;15.90;;;;;;;0.78;100.00;101463.24;5071090;56;1140672;-77
2024/03/19 04:49:58;;;;;;;42.67;20.93;;;;;;;0.77;100.00;101463.69;5099576;56;1140393;-79
2024/03/19 04:55:04;;;;;;;22.73;13.18;;;;;;;0.78;100.00;101470.61;5113917;56;1140898;-76
2024/03/19 05:00:16;;;;;;;26.63;11.73;;;;;;;0.66;100.00;101475.64;5099183;56;1140855;-76
2024/03/19 05:05:21;;;;;;;16.63;9.93;;;;;;;0.62;100.00;101483.09;5106936;56;1140487;-79
2024/03/19 05:10:27;;;;;;;29.87;12.35;;;;;;;0.60;100.00;101490.11;5099913;56;1139019;-79
2024/03/19 05:15:33;;;;;;;27.03;13.43;;;;;;;0.62;100.00;101496.12;5118267;56;1140913;-75
2024/03/19 05:20:38;;;;;;;32.05;14.10;;;;;;;0.56;100.00;101500.61;5031526;56;1140934;-77
2024/03/19 05:25:44;;;;;;;29.37;14.63;;;;;;;0.40;100.00;101506.57;4908201;58;1140887;-77
2024/03/19 05:30:50;;;;;;;25.53;12.70;;;;;;;0.40;100.00;101506.57;4931248;59;1140804;-76
2024/03/19 05:35:55;;;;;;;24.80;13.50;;;;;;;0.54;100.00;101503.24;4907448;59;1140737;-77
2024/03/19 05:41:01;;;;;;;35.17;14.17;;;;;;;0.67;100.00;101503.84;4957039;57;1140904;-76
2024/03/19 05:46:06;;;;;;;37.07;14.23;;;;;;;0.59;100.00;101508.36;5011371;57;1140701;-77
2024/03/19 05:51:12;;;;;;;30.40;15.10;;;;;;;0.39;100.00;101517.87;4996186;57;1140991;-76
2024/03/19 05:56:18;;;;;;;32.80;14.03;;;;;;;0.23;100.00;101521.65;4991837;57;1140636;-77
2024/03/19 06:01:24;;;;;;;46.02;21.25;;;;;;;0.26;100.00;101521.16;4996231;57;1140708;-77
2024/03/19 06:06:30;;;;;;;46.70;21.67;;;;;;;0.43;100.00;101527.78;5066909;56;1140517;-76
2024/03/19 06:11:36;;;;;;;58.98;30.37;;;;;;;0.60;100.00;101530.91;4963799;57;1140851;-77
2024/03/19 06:16:41;;;;;;;94.73;43.97;;;;;;;0.72;100.00;101521.97;4991842;57;1140656;-77
2024/03/19 06:21:47;;;;;;;104.47;51.53;;;;;;;0.81;100.00;101522.63;5011300;57;1141200;-77
2024/03/19 06:26:53;;;;;;;93.87;44.63;;;;;;;0.83;100.00;101523.90;4991917;57;1142836;-77
2024/03/19 06:31:59;;;;;;;26.80;13.60;;;;;;;0.96;100.00;101525.34;4991359;57;1140638;-77
2024/03/19 06:37:05;;;;;;;18.27;9.73;;;;;;;1.44;100.00;101529.88;5011680;57;1140750;-76
2024/03/19 06:42:10;;;;;;;15.70;9.83;;;;;;;1.86;100.00;101526.66;5079557;56;1139034;-77
2024/03/19 06:47:16;;;;;;;16.37;10.60;;;;;;;2.22;100.00;101522.68;5079454;56;1138572;-78
2024/03/19 06:52:21;;;;;;;25.13;10.40;;;;;;;2.42;100.00;101530.83;5079285;56;1140913;-76
2024/03/19 06:57:28;;;;;;;27.63;12.50;;;;;;;2.53;100.00;101539.66;5099069;55;1140815;-78
2024/03/19 07:02:34;;;;;;;25.43;13.33;;;;;;;2.54;100.00;101545.29;5080159;56;1140826;-77
2024/03/19 07:07:40;;;;;;;26.40;12.30;;;;;;;2.51;100.00;101542.76;5028406;56;1140569;-78
2024/03/19 07:12:46;;;;;;;54.00;22.10;;;;;;;2.44;100.00;101545.53;5016740;56;1140998;-78
2024/03/19 07:17:52;;;;;;;21.27;11.10;;;;;;;2.44;100.00;101544.70;4997386;56;1140924;-77
2024/03/19 07:22:57;;;;;;;20.37;12.53;;;;;;;2.44;100.00;101544.70;4997291;56;1141026;-76
2024/03/19 07:28:03;;;;;;;20.10;11.20;;;;;;;2.53;100.00;101553.57;5016459;57;1140720;-78
2024/03/19 07:33:09;;;;;;;22.60;11.60;;;;;;;2.56;100.00;101555.25;5035762;56;1140979;-77
2024/03/19 07:38:14;;;;;;;18.13;9.17;;;;;;;2.58;100.00;101562.14;5079826;56;1140840;-77
2024/03/19 07:43:20;;;;;;;16.65;10.78;;;;;;;2.56;100.00;101560.02;5079975;56;1138626;-78
2024/03/19 07:48:25;;;;;;;21.20;11.53;;;;;;;2.53;100.00;101565.32;5099857;56;1140799;-78
2024/03/19 07:53:31;;;;;;;18.07;10.30;;;;;;;2.58;100.00;101571.28;5079579;56;1140948;-78
2024/03/19 07:58:36;;;;;;;16.83;9.87;;;;;;;2.60;100.00;101576.47;5079428;56;1140810;-78
2024/03/19 08:03:42;;;;;;;19.87;8.97;;;;;;;2.61;100.00;101578.15;5055495;56;1138727;-77
2024/03/19 08:08:48;;;;;;;16.70;9.10;;;;;;;2.61;100.00;101572.48;5010083;56;1138673;-78
2024/03/19 08:13:53;;;;;;;13.93;9.03;;;;;;;2.55;100.00;101583.56;4917209;57;1138722;-78
2024/03/19 08:19:00;;;;;;;12.10;9.10;;;;;;;2.55;100.00;101583.56;4931608;58;1138641;-77
2024/03/19 08:24:06;;;;;;;16.83;8.53;;;;;;;2.58;100.00;101588.70;4997051;57;1138788;-77
2024/03/19 08:29:12;;;;;;;30.63;11.37;;;;;;;2.64;100.00;101582.84;4956305;57;1138747;-78
2024/03/19 08:34:18;;;;;;;13.60;8.97;;;;;;;2.69;100.00;101582.72;4944533;57;1140846;-77
2024/03/19 08:39:24;;;;;;;16.93;9.13;;;;;;;2.72;100.00;101583.95;4964530;58;1138376;-77
2024/03/19 08:44:29;;;;;;;12.30;8.30;;;;;;;2.78;100.00;101591.59;4944965;57;1138376;-78
2024/03/19 08:49:35;;;;;;;10.23;7.23;;;;;;;2.85;100.00;101593.59;4944823;57;1138989;-78
2024/03/19 08:54:41;;;;;;;9.85;7.35;;;;;;;2.92;100.00;101589.45;5045273;56;1138827;-78
2024/03/19 08:59:50;;;;;;;9.08;7.35;;;;;;;3.24;100.00;101595.48;4945081;57;1136672;-78
2024/03/19 09:04:54;;;;;;;27.57;18.77;;;;;;;3.65;100.00;101591.16;4892450;56;1136539;-77
2024/03/19 09:10:00;;;;;;;16.57;10.83;;;;;;;3.86;100.00;101590.89;4959127;57;1140758;-77
2024/03/19 09:15:11;;;;;;;12.47;8.20;;;;;;;3.86;100.00;101590.89;4865400;58;1140915;-78
2024/03/19 09:20:15;;;;;;;12.27;8.10;;;;;;;4.06;100.00;101592.86;4867583;57;1138671;-78
2024/03/19 09:25:20;;;;;;;11.25;8.43;;;;;;;4.11;100.00;101595.74;4866223;57;1138678;-77
2024/03/19 09:30:26;;;;;;;16.10;13.60;;;;;;;4.17;100.00;101595.52;4913623;58;1138932;-77
2024/03/19 09:35:32;;;;;;;8.77;7.30;;;;;;;4.10;100.00;101606.27;4916437;57;1140820;-78
2024/03/19 09:40:39;;;;;;;14.13;8.50;;;;;;;4.09;100.00;101608.47;4912702;58;1136586;-78
2024/03/19 09:45:45;;;;;;;13.97;8.73;;;;;;;4.09;100.00;101612.41;4935986;57;1139017;-78
2024/03/19 09:50:51;;;;;;;9.43;7.10;;;;;;;4.25;100.00;101612.29;4953120;57;1139068;-78
2024/03/19 09:55:56;;;;;;;33.33;23.23;;;;;;;4.63;100.00;101604.84;5036038;56;1136878;-78
2024/03/19 10:01:02;;;;;;;11.50;8.47;;;;;;;4.79;100.00;101603.39;5018406;57;1140448;-78
2024/03/19 10:06:20;;;;;;;9.88;7.40;;;;;;;4.89;100.00;101597.74;5053616;57;1138944;-78
2024/03/19 10:11:22;;;;;;;12.00;8.67;;;;;;;4.88;100.00;101593.44;4997486;56;1136581;-77
2024/03/19 10:16:29;;;;;;;11.78;8.38;;;;;;;4.89;100.00;101590.33;4996907;57;1138521;-78
2024/03/19 10:21:36;;;;;;;11.75;8.65;;;;;;;4.90;100.00;101592.90;4971973;57;1138560;-80
2024/03/19 10:26:46;;;;;;;11.68;8.78;;;;;;;5.07;100.00;101590.11;4982888;57;1138330;-78
2024/03/19 10:31:53;;;;;;;14.15;9.30;;;;;;;5.34;100.00;101590.84;5078543;56;1140448;-78
2024/03/19 10:36:58;;;;;;;13.70;9.80;;;;;;;5.27;100.00;101585.83;5099181;56;1138757;-77
2024/03/19 10:42:06;;;;;;;13.60;8.87;;;;;;;5.27;100.00;101585.83;5079405;56;1138680;-78
2024/03/19 10:47:14;;;;;;;15.13;11.20;;;;;;;5.43;100.00;101587.85;5079376;56;1138547;-78
2024/03/19 10:52:24;;;;;;;16.90;12.28;;;;;;;5.50;100.00;101581.46;5079096;56;1141047;-78
2024/03/19 10:57:30;;;;;;;28.45;20.62;;;;;;;5.55;100.00;101588.22;5098889;56;1140776;-79
2024/03/19 11:02:36;;;;;;;17.05;10.55;;;;;;;5.43;100.00;101586.54;4998701;56;1140786;-78
2024/03/19 11:07:45;;;;;;;12.20;8.58;;;;;;;5.41;100.00;101580.04;4928229;57;1140821;-77
2024/03/19 11:13:06;;;;;;;7.70;6.67;;;;;;;5.53;100.00;101580.86;5094227;56;1138294;-78
2024/03/19 11:18:18;;;;;;;13.67;8.93;;;;;;;5.66;100.00;101576.83;5076166;56;1138515;-78
2024/03/19 11:23:30;;;;;;;13.57;9.67;;;;;;;5.87;100.00;101568.55;5079154;56;1138618;-78
2024/03/19 11:28:37;;;;;;;52.55;32.70;;;;;;;6.25;100.00;101568.75;5097099;55;1138669;-79
2024/03/19 11:33:42;;;;;;;40.83;26.07;;;;;;;6.68;100.00;101566.41;5027265;56;1150404;-78
2024/03/19 11:38:49;;;;;;;17.45;11.78;;;;;;;6.86;100.00;101560.78;5025668;56;1140783;-78
2024/03/19 11:43:56;;;;;;;16.03;10.40;;;;;;;6.74;100.00;101554.73;5023670;57;1140581;-79
2024/03/19 11:49:01;;;;;;;12.20;8.57;;;;;;;6.58;100.00;101546.69;5063516;56;1140635;-79
2024/03/19 11:54:09;;;;;;;32.23;14.37;;;;;;;6.67;100.00;101541.04;5015755;57;1138293;-79
2024/03/19 11:59:15;;;;;;;16.43;9.57;;;;;;;6.99;100.00;101539.11;5098746;56;1141012;-77
2024/03/19 12:04:21;;;;;;;17.40;9.20;;;;;;;7.24;100.00;101533.53;5099889;56;1138518;-77
2024/03/19 12:09:32;;;;;;;13.80;9.17;;;;;;;7.44;100.00;101535.22;4954932;57;1138581;-79
2024/03/19 12:14:34;;;;;;;16.13;9.27;;;;;;;7.53;100.00;101534.77;4975201;57;1139103;-79
2024/03/19 12:19:40;;;;;;;12.27;9.40;;;;;;;7.73;100.00;101535.97;5015876;57;1138797;-80
2024/03/19 12:24:46;;;;;;;10.08;8.75;;;;;;;7.54;100.00;101534.30;5036261;57;1138891;-81
2024/03/19 12:29:51;;;;;;;10.83;8.20;;;;;;;7.43;100.00;101533.52;5016601;57;1138924;-76
2024/03/19 12:35:05;;;;;;;9.03;6.93;;;;;;;7.65;100.00;101527.57;5010145;57;1138523;-79
2024/03/19 12:40:10;;;;;;;13.55;8.75;;;;;;;7.86;100.00;101526.98;5016028;55;1136770;-78
2024/03/19 12:45:16;;;;;;;11.30;8.37;;;;;;;8.09;100.00;101523.20;4996302;57;1138486;-77
2024/03/19 12:50:21;;;;;;;27.17;16.30;;;;;;;8.25;100.00;101512.22;4992678;57;1138947;-76
2024/03/19 12:55:27;;;;;;;17.90;10.23;;;;;;;8.33;100.00;101507.91;5099236;57;1140760;-77
2024/03/19 13:00:33;;;;;;;12.05;8.60;;;;;;;8.44;100.00;101499.82;5007970;56;1140769;-79
2024/03/19 13:05:38;;;;;;;13.27;8.53;;;;;;;8.59;100.00;101495.98;4914805;58;1138528;-78
2024/03/19 13:10:44;;;;;;;11.35;8.73;;;;;;;8.58;100.00;101496.44;4977393;57;1138860;-78
2024/03/19 13:15:50;;;;;;;17.57;9.43;;;;;;;8.73;100.00;101492.13;4942553;56;1138859;-76
2024/03/19 13:20:55;;;;;;;17.80;11.25;;;;;;;8.80;100.00;101482.95;5079871;56;1138968;-78
2024/03/19 13:26:01;;;;;;;17.27;11.83;;;;;;;8.81;100.00;101482.88;5099703;56;1140946;-78
2024/03/19 13:31:06;;;;;;;14.23;9.73;;;;;;;8.87;100.00;101475.07;5079444;55;1140719;-75
2024/03/19 13:36:12;;;;;;;13.93;9.77;;;;;;;9.01;100.00;101473.02;5079707;56;1138569;-76
2024/03/19 13:41:22;;;;;;;17.60;12.10;;;;;;;9.13;100.00;101463.94;5034494;56;1139022;-76
2024/03/19 13:46:27;;;;;;;17.10;10.90;;;;;;;9.16;100.00;101465.56;5016312;56;1140638;-76
2024/03/19 13:51:33;;;;;;;13.70;9.23;;;;;;;9.04;100.00;101467.08;4996816;56;1140667;-76
2024/03/19 13:56:46;;;;;;;27.02;14.65;;;;;;;8.89;100.00;101457.84;5011214;56;1138902;-77
2024/03/19 14:01:49;;;;;;;13.60;8.90;;;;;;;8.96;100.00;101467.13;4951172;56;1140816;-77
2024/03/19 14:06:57;;;;;;;22.07;12.15;;;;;;;9.07;100.00;101462.95;4956347;57;1138809;-77
2024/03/19 14:12:01;;;;;;;16.02;9.43;;;;;;;9.18;100.00;101459.23;4988399;56;1141034;-76
2024/03/19 14:17:07;;;;;;;12.10;9.37;;;;;;;8.99;100.00;101458.59;5016149;57;1138871;-75
2024/03/19 14:22:13;;;;;;;9.80;8.27;;;;;;;8.79;100.00;101462.33;5074852;56;1138855;-76
2024/03/19 14:27:18;;;;;;;21.77;14.17;;;;;;;8.64;100.00;101463.16;5074638;56;1136537;-82
2024/03/19 14:32:24;;;;;;;10.77;8.43;;;;;;;8.47;100.00;101461.90;5074990;56;1140536;-78
2024/03/19 14:37:29;;;;;;;36.20;16.87;;;;;;;8.45;100.00;101459.81;5046324;57;1138691;-79
2024/03/19 14:42:35;;;;;;;21.53;11.67;;;;;;;8.41;100.00;101453.84;5078813;57;1140861;-77
2024/03/19 14:47:41;;;;;;;25.07;14.67;;;;;;;8.48;100.00;101455.70;5011666;56;1140677;-77
2024/03/19 14:52:46;;;;;;;17.42;11.65;;;;;;;8.60;100.00;101452.39;5099386;56;1140540;-79
2024/03/19 14:57:52;;;;;;;26.12;15.83;;;;;;;8.65;100.00;101454.78;4905266;57;1141002;-78
2024/03/19 15:02:58;;;;;;;20.37;11.70;;;;;;;8.62;100.00;101453.63;4967831;57;1141043;-77
2024/03/19 15:08:04;;;;;;;25.87;13.17;;;;;;;8.56;100.00;101453.48;5015847;56;1140779;-76
2024/03/19 15:13:10;;;;;;;34.63;22.33;;;;;;;8.57;100.00;101455.19;4977467;57;1140705;-77
2024/03/19 15:18:16;;;;;;;10.83;8.60;;;;;;;8.51;100.00;101454.22;4974825;56;1140649;-76
2024/03/19 15:23:22;;;;;;;37.53;26.50;;;;;;;8.38;100.00;101445.27;5074153;56;1138586;-78
2024/03/19 15:28:27;;;;;;;38.43;21.00;;;;;;;8.29;100.00;101445.25;5088344;56;1140750;-75
2024/03/19 15:33:33;;;;;;;28.23;16.07;;;;;;;8.27;100.00;101443.63;5074306;56;1140722;-80
2024/03/19 15:38:38;;;;;;;22.77;12.73;;;;;;;8.24;100.00;101434.59;5079526;56;1141223;-79
2024/03/19 15:43:44;;;;;;;16.47;11.17;;;;;;;8.21;100.00;101436.06;5117030;56;1140591;-77
2024/03/19 15:48:50;;;;;;;21.23;12.95;;;;;;;8.23;100.00;101442.96;5099927;56;1140959;-79
2024/03/19 15:53:55;;;;;;;18.13;10.97;;;;;;;8.28;100.00;101436.95;5092815;56;1140609;-76
2024/03/19 15:59:01;;;;;;;15.33;10.17;;;;;;;8.35;100.00;101441.02;5080951;56;1140746;-77
2024/03/19 16:04:07;;;;;;;12.73;9.43;;;;;;;8.40;100.00;101444.23;5052058;56;1140747;-76
2024/03/19 16:09:12;;;;;;;29.47;15.03;;;;;;;8.38;100.00;101443.95;5077380;56;1138539;-78
2024/03/19 16:14:18;;;;;;;22.77;13.37;;;;;;;8.37;100.00;101445.73;4987334;57;1140840;-76
2024/03/19 16:19:24;;;;;;;42.23;19.90;;;;;;;8.48;100.00;101445.62;5016436;57;1140613;-78
2024/03/19 16:24:29;;;;;;;18.30;12.40;;;;;;;8.44;100.00;101448.88;5039054;56;1141042;-76
2024/03/19 16:29:35;;;;;;;26.70;13.80;;;;;;;8.31;100.00;101449.98;5078621;56;1140614;-76
2024/03/19 16:34:40;;;;;;;52.23;24.17;;;;;;;8.19;100.00;101454.59;5034388;55;1140543;-77
2024/03/19 16:39:47;;;;;;;53.83;25.37;;;;;;;8.05;100.00;101462.36;5015586;55;1145953;-78
2024/03/19 16:44:52;;;;;;;109.50;46.08;;;;;;;7.95;100.00;101464.60;5001866;55;1140667;-77
2024/03/19 16:49:58;;;;;;;77.87;30.27;;;;;;;7.79;100.00;101461.55;5016444;55;1143281;-78
2024/03/19 16:55:04;;;;;;;75.65;31.50;;;;;;;7.65;100.00;101459.58;4990891;57;1140539;-77
2024/03/19 17:00:12;;;;;;;78.07;33.63;;;;;;;7.57;100.00;101470.52;4987626;57;1140914;-76
2024/03/19 17:05:17;;;;;;;82.17;36.77;;;;;;;7.49;100.00;101466.08;5076425;55;1141239;-77
2024/03/19 17:10:23;;;;;;;96.63;39.57;;;;;;;7.44;100.00;101465.94;5090818;56;1140619;-75
2024/03/19 17:15:29;;;;;;;81.40;37.33;;;;;;;7.29;100.00;101467.08;5010451;56;1140846;-78
2024/03/19 17:20:34;;;;;;;148.62;67.03;;;;;;;7.21;100.00;101470.99;5034661;56;1140629;-78
2024/03/19 17:25:40;;;;;;;164.73;71.63;;;;;;;7.15;100.00;101472.16;5064303;56;1142775;-78
2024/03/19 17:30:45;;;;;;;134.90;59.73;;;;;;;7.04;100.00;101466.54;5078921;56;1148318;-76
2024/03/19 17:35:51;;;;;;;91.92;41.05;;;;;;;6.97;100.00;101468.63;5077889;56;1142718;-78
2024/03/19 17:40:56;;;;;;;91.60;41.80;;;;;;;6.91;100.00;101475.48;5098147;57;1140743;-76
2024/03/19 17:46:02;;;;;;;109.90;47.17;;;;;;;6.80;100.00;101483.03;5079375;57;1140944;-75
2024/03/19 17:51:08;;;;;;;104.50;50.97;;;;;;;6.71;100.00;101479.52;5079409;56;1142848;-77
2024/03/19 17:56:13;;;;;;;134.47;63.90;;;;;;;6.66;100.00;101486.75;5098697;56;1143054;-76
2024/03/19 18:01:19;;;;;;;134.83;66.83;;;;;;;6.60;100.00;101485.25;5079146;56;1142806;-76
2024/03/19 18:06:25;;;;;;;119.33;57.38;;;;;;;6.48;100.00;101484.50;5079022;56;1143104;-76
2024/03/19 18:11:31;;;;;;;119.27;57.03;;;;;;;6.30;100.00;101482.69;5097929;56;1142826;-77
2024/03/19 18:16:37;;;;;;;128.23;61.13;;;;;;;6.30;100.00;101482.69;5078602;56;1142821;-77
2024/03/19 18:21:43;;;;;;;156.73;75.67;;;;;;;6.19;100.00;101479.69;5044128;56;1142891;-76
2024/03/19 18:26:48;;;;;;;172.07;78.65;;;;;;;6.13;100.00;101482.58;5016267;56;1142924;-78
2024/03/19 18:31:55;;;;;;;201.67;85.60;;;;;;;6.03;100.00;101482.59;4996645;56;1142693;-76
2024/03/19 18:37:00;;;;;;;217.10;79.58;;;;;;;5.86;100.00;101489.39;5038075;56;1142636;-76
2024/03/19 18:42:06;;;;;;;202.17;87.87;;;;;;;5.75;100.00;101492.94;5099660;57;1142810;-76
2024/03/19 18:47:12;;;;;;;180.80;78.22;;;;;;;5.62;100.00;101493.05;5078406;56;1142869;-78
2024/03/19 18:52:18;;;;;;;182.10;74.57;;;;;;;5.59;100.00;101497.11;4982077;56;1142619;-75
2024/03/19 18:57:23;;;;;;;254.30;105.87;;;;;;;5.55;100.00;101497.69;4914683;58;1143043;-77
2024/03/19 19:02:29;;;;;;;224.63;91.77;;;;;;;5.51;100.00;101499.18;4961038;58;1145327;-75
2024/03/19 19:07:35;;;;;;;195.17;82.40;;;;;;;5.48;100.00;101499.33;4868818;58;1142787;-77
2024/03/19 19:12:41;;;;;;;232.90;101.97;;;;;;;5.36;100.00;101499.34;4916828;58;1142935;-76
2024/03/19 19:17:46;;;;;;;144.87;63.87;;;;;;;5.36;100.00;101499.34;4967636;57;1154319;-77
2024/03/19 19:22:52;;;;;;;177.78;70.97;;;;;;;5.31;100.00;101503.95;5003281;57;1143251;-77
2024/03/19 19:27:58;;;;;;;178.27;75.00;;;;;;;5.25;100.00;101506.34;4912315;57;1143075;-75
2024/03/19 19:33:06;;;;;;;109.93;45.43;;;;;;;5.16;100.00;101501.94;4936097;57;1142893;-76
2024/03/19 19:38:12;;;;;;;121.57;55.97;;;;;;;5.02;100.00;101503.78;4997676;56;1142794;-77
2024/03/19 19:43:18;;;;;;;72.87;34.10;;;;;;;4.85;100.00;101500.95;4997613;56;1144787;-75
2024/03/19 19:48:25;;;;;;;59.20;31.20;;;;;;;4.85;100.00;101500.95;4987838;56;1140992;-74
2024/03/19 19:53:30;;;;;;;59.77;25.73;;;;;;;4.74;100.00;101495.25;4932609;56;1140686;-76
2024/03/19 19:58:36;;;;;;;71.70;38.17;;;;;;;4.67;100.00;101496.41;4997714;55;1141065;-77
2024/03/19 20:03:42;;;;;;;75.77;41.53;;;;;;;4.55;100.00;101495.11;4951623;56;1140519;-75
2024/03/19 20:08:47;;;;;;;54.07;30.27;;;;;;;4.43;100.00;101495.08;4960786;57;1140934;-75
2024/03/19 20:13:53;;;;;;;38.15;21.57;;;;;;;4.34;100.00;101503.28;4945674;56;1140845;-77
2024/03/19 20:19:00;;;;;;;39.87;19.97;;;;;;;4.19;100.00;101499.91;4917951;57;1140695;-76
2024/03/19 20:24:06;;;;;;;43.03;21.57;;;;;;;4.14;100.00;101507.05;4934703;57;1140880;-76
2024/03/19 20:29:11;;;;;;;34.77;19.60;;;;;;;4.15;100.00;101512.69;4916360;57;1141256;-78
2024/03/19 20:34:18;;;;;;;55.43;24.47;;;;;;;4.19;100.00;101511.68;4915006;56;1140697;-77
2024/03/19 20:39:24;;;;;;;56.33;27.85;;;;;;;4.23;100.00;101506.75;4994054;57;1140696;-78
2024/03/19 20:44:29;;;;;;;71.23;32.30;;;;;;;4.28;100.00;101504.80;4932992;57;1140802;-77
2024/03/19 20:49:35;;;;;;;68.17;32.17;;;;;;;4.31;100.00;101501.22;4916736;57;1140931;-75
2024/03/19 20:54:41;;;;;;;63.10;30.43;;;;;;;4.26;100.00;101502.72;4923399;57;1140852;-78
2024/03/19 20:59:47;;;;;;;51.70;28.52;;;;;;;4.20;100.00;101506.84;4844344;58;1140965;-77
2024/03/19 21:04:53;;;;;;;109.32;50.03;;;;;;;4.11;100.00;101505.88;4857292;58;1140986;-75
2024/03/19 21:09:58;;;;;;;74.73;34.00;;;;;;;3.98;100.00;101499.33;4799282;58;1142879;-76
2024/03/19 21:15:10;;;;;;;63.65;25.02;;;;;;;3.82;100.00;101504.23;4897201;57;1140723;-75
2024/03/19 21:20:19;;;;;;;88.03;30.33;;;;;;;3.76;100.00;101505.32;4935150;57;1140896;-75
2024/03/19 21:25:25;;;;;;;90.03;39.87;;;;;;;3.73;100.00;101504.56;4936002;57;1140779;-77
2024/03/19 21:30:32;;;;;;;90.60;39.55;;;;;;;3.72;100.00;101508.08;4936096;58;1141341;-77
2024/03/19 21:35:37;;;;;;;61.93;32.33;;;;;;;3.63;100.00;101509.25;4953888;58;1140664;-76
2024/03/19 21:40:43;;;;;;;69.10;32.20;;;;;;;3.60;100.00;101502.81;4925120;57;1140827;-77
2024/03/19 21:45:48;;;;;;;59.87;27.87;;;;;;;3.52;100.00;101504.80;4916828;58;1140742;-77
2024/03/19 21:50:54;;;;;;;60.53;28.20;;;;;;;3.45;100.00;101505.48;4930287;58;1140696;-77
2024/03/19 21:56:00;;;;;;;64.67;32.50;;;;;;;3.48;100.00;101501.45;5027703;56;1140626;-76
2024/03/19 22:01:06;;;;;;;88.17;44.03;;;;;;;3.50;100.00;101502.72;5040502;57;1140523;-77
2024/03/19 22:06:12;;;;;;;118.03;57.67;;;;;;;3.47;100.00;101505.43;5059635;57;1140932;-75
2024/03/19 22:11:18;;;;;;;121.37;55.27;;;;;;;3.39;100.00;101500.43;5040061;57;1142760;-77
2024/03/19 22:16:24;;;;;;;127.00;57.45;;;;;;;3.25;100.00;101491.31;5040535;57;1142695;-75
2024/03/19 22:21:29;;;;;;;136.83;66.53;;;;;;;3.07;100.00;101491.44;5060405;57;1142784;-75
2024/03/19 22:26:35;;;;;;;117.00;55.03;;;;;;;2.92;100.00;101488.84;5040343;57;1142668;-76
2024/03/19 22:31:41;;;;;;;98.37;50.20;;;;;;;2.77;100.00;101484.09;5040634;57;1143028;-77
2024/03/19 22:36:47;;;;;;;75.63;36.13;;;;;;;2.66;100.00;101485.72;5060665;57;1140801;-76
2024/03/19 22:41:54;;;;;;;56.47;29.13;;;;;;;2.61;100.00;101477.61;5040917;57;1140802;-75